Smartville, California
Current Conditions -  °F | °C
As of 12:58 AM on Tuesday 21 Oct 2014 (Local Time) from KBAB Reporting Station
Clear Clear  
Wind Chill: 53°   Ceiling: Unl
Heat Index: 53°   Visibility: 10mi
Dew Point: 46°   Wind: 7mph
Humidity: 79%   Direction: 100°E
Pressure: 30.04"   Gusts: NA
Location:  39.21°N, 121.3°W
Report Text: KBAB 210758Z AUTO 10006KT 10SM CLR 11/08 A3004 RMK AO2 SLP248 T01140079 402240110 $
Loading
Personal Weather Stations






























Interactive Weather Map
Tropical Storm Tracking
New forecast layout! Learn more

10-Day Weather Forecast

Advertisements
Track Severe Weather on mobile